Time;durP1;ratioP1;P1;durP2;ratioP2;P2;SDS_P1;SDS_P2;PMS_P1;PMS_P2;Temp;Humidity;BMP_temperature;BMP_pressure;BME280_temperature;BME280_humidity;BME280_pressure;Samples;Min_cycle;Max_cycle;Signal;HPM_P1;HPM_P2
2022/12/30 00:00:45;;;;;;;22.15;2.97;;;;;;;;;;5031149;28;20041;-62
2022/12/30 00:03:11;;;;;;;21.15;2.67;;;;;;;;;;5026022;28;20018;-63
2022/12/30 00:05:37;;;;;;;15.57;3.83;;;;;;;;;;5027143;28;20032;-62
2022/12/30 00:08:03;;;;;;;16.65;3.05;;;;;;;;;;5031031;28;20038;-63
2022/12/30 00:10:30;;;;;;;20.58;5.38;;;;;;;;;;5031216;28;20033;-63
2022/12/30 00:35:12;;;;;;;26.30;3.47;;;;;;;;;;5034072;28;20120;-62
2022/12/30 00:37:38;;;;;;;20.60;3.10;;;;;;;;;;5035062;28;20037;-62
2022/12/30 00:40:05;;;;;;;17.23;2.83;;;;;;;;;;5034684;28;20032;-62
2022/12/30 00:45:16;;;;;;;11.07;2.55;;;;;;;;;;5025101;28;20025;-62
2022/12/30 00:47:42;;;;;;;16.67;2.63;;;;;;;;;;5034053;28;20155;-62
2022/12/30 00:58:23;;;;;;;22.55;3.53;;;;;;;;;;5033624;28;20030;-63
2022/12/30 01:00:49;;;;;;;16.58;2.45;;;;;;;;;;5031291;28;20018;-63
2022/12/30 01:03:15;;;;;;;19.33;2.92;;;;;;;;;;5034315;28;20034;-62
2022/12/30 01:05:41;;;;;;;14.73;2.58;;;;;;;;;;5034109;28;20022;-63
2022/12/30 01:08:08;;;;;;;18.27;5.13;;;;;;;;;;5034363;28;20072;-63
2022/12/30 01:10:34;;;;;;;21.60;3.00;;;;;;;;;;5034040;28;20030;-62
2022/12/30 01:13:00;;;;;;;15.48;2.67;;;;;;;;;;5034562;28;20124;-63
2022/12/30 01:15:26;;;;;;;17.05;2.78;;;;;;;;;;5033796;28;20040;-62
2022/12/30 01:17:52;;;;;;;18.52;2.55;;;;;;;;;;5033086;28;20035;-62
2022/12/30 01:20:18;;;;;;;16.73;2.92;;;;;;;;;;5033321;28;20037;-63
2022/12/30 01:22:44;;;;;;;15.52;2.97;;;;;;;;;;5034006;28;20026;-63
2022/12/30 01:25:11;;;;;;;16.33;3.63;;;;;;;;;;5033885;28;20104;-63
2022/12/30 01:27:37;;;;;;;24.65;4.47;;;;;;;;;;5032894;28;20022;-62
2022/12/30 01:30:04;;;;;;;16.52;3.13;;;;;;;;;;5033647;28;20031;-62
2022/12/30 01:32:31;;;;;;;12.50;3.05;;;;;;;;;;5033263;28;20061;-62
2022/12/30 01:34:57;;;;;;;18.42;3.35;;;;;;;;;;5033860;28;20572;-63
2022/12/30 01:37:24;;;;;;;12.15;3.05;;;;;;;;;;5033493;28;20033;-62
2022/12/30 01:39:50;;;;;;;21.98;3.55;;;;;;;;;;5033761;28;20017;-62
2022/12/30 01:42:21;;;;;;;19.58;2.67;;;;;;;;;;5032797;28;20091;-63
2022/12/30 01:45:03;;;;;;;19.98;3.72;;;;;;;;;;5033205;28;20021;-63
2022/12/30 01:47:29;;;;;;;23.42;3.10;;;;;;;;;;5027420;28;20025;-62
2022/12/30 01:50:09;;;;;;;14.57;2.55;;;;;;;;;;5027986;28;20064;-62
2022/12/30 01:52:36;;;;;;;14.43;3.08;;;;;;;;;;5033268;28;20027;-62
2022/12/30 01:55:05;;;;;;;11.95;2.78;;;;;;;;;;5033822;28;20060;-63
2022/12/30 01:57:31;;;;;;;28.75;5.93;;;;;;;;;;5032751;28;20119;-63
2022/12/30 01:59:59;;;;;;;20.55;3.20;;;;;;;;;;5033175;28;20075;-62
2022/12/30 02:02:25;;;;;;;27.25;3.88;;;;;;;;;;5033285;28;20460;-62
2022/12/30 02:04:51;;;;;;;21.38;3.65;;;;;;;;;;5033787;28;20022;-62
2022/12/30 02:07:24;;;;;;;22.98;4.75;;;;;;;;;;5033246;28;20049;-62
2022/12/30 02:09:50;;;;;;;18.73;3.40;;;;;;;;;;5033331;28;20040;-62
2022/12/30 02:12:17;;;;;;;14.18;2.92;;;;;;;;;;5032822;28;20393;-62
2022/12/30 02:14:43;;;;;;;29.90;4.43;;;;;;;;;;5029259;28;20022;-63
2022/12/30 02:17:14;;;;;;;26.35;3.10;;;;;;;;;;5033009;28;20021;-63
2022/12/30 02:19:52;;;;;;;11.60;2.63;;;;;;;;;;5033324;28;20025;-63
2022/12/30 02:22:21;;;;;;;18.30;3.65;;;;;;;;;;5032749;28;20030;-62
2022/12/30 02:25:07;;;;;;;20.80;3.47;;;;;;;;;;5027334;28;20401;-62
2022/12/30 02:27:36;;;;;;;21.55;3.90;;;;;;;;;;5033527;28;20032;-62
2022/12/30 02:30:20;;;;;;;23.17;3.47;;;;;;;;;;5032439;28;20022;-62
2022/12/30 02:33:03;;;;;;;21.17;4.18;;;;;;;;;;5025180;28;20396;-62
2022/12/30 02:35:29;;;;;;;23.92;2.88;;;;;;;;;;5022614;28;20087;-63
2022/12/30 02:38:09;;;;;;;15.40;2.63;;;;;;;;;;5032647;28;20057;-63
2022/12/30 02:46:13;;;;;;;20.85;3.03;;;;;;;;;;5032290;28;20041;-62
2022/12/30 02:48:40;;;;;;;24.50;2.92;;;;;;;;;;5031648;28;20024;-62
2022/12/30 02:53:53;;;;;;;19.83;4.57;;;;;;;;;;5032104;28;20474;-62
2022/12/30 02:56:19;;;;;;;18.30;3.60;;;;;;;;;;5032054;28;20052;-62
2022/12/30 02:58:49;;;;;;;33.90;6.30;;;;;;;;;;5031962;28;20029;-63
2022/12/30 03:04:15;;;;;;;26.98;4.82;;;;;;;;;;5032307;28;20022;-63
2022/12/30 03:06:53;;;;;;;22.85;2.90;;;;;;;;;;5031992;28;20037;-63
2022/12/30 03:09:38;;;;;;;17.20;2.92;;;;;;;;;;5032137;28;20558;-63
2022/12/30 03:12:25;;;;;;;16.58;2.97;;;;;;;;;;5031710;28;20381;-63
2022/12/30 03:14:55;;;;;;;16.55;3.20;;;;;;;;;;5031988;28;20025;-63
2022/12/30 03:17:25;;;;;;;14.50;3.10;;;;;;;;;;5031923;28;20032;-63
2022/12/30 03:19:53;;;;;;;22.50;4.28;;;;;;;;;;5032052;28;20033;-63
2022/12/30 03:27:52;;;;;;;17.63;3.58;;;;;;;;;;5031491;28;20029;-63
2022/12/30 03:30:18;;;;;;;19.55;3.05;;;;;;;;;;5027408;28;20018;-63
2022/12/30 03:32:44;;;;;;;12.10;2.63;;;;;;;;;;5028504;28;20040;-62
2022/12/30 03:35:11;;;;;;;11.52;2.15;;;;;;;;;;5031104;28;20057;-62
2022/12/30 03:37:42;;;;;;;13.10;2.17;;;;;;;;;;5031770;28;20612;-63
2022/12/30 03:40:12;;;;;;;18.70;2.42;;;;;;;;;;5031604;28;20485;-63
2022/12/30 03:42:38;;;;;;;13.07;2.63;;;;;;;;;;5029569;28;20025;-63
2022/12/30 03:45:05;;;;;;;11.43;2.17;;;;;;;;;;5030397;28;20431;-62
2022/12/30 03:47:31;;;;;;;14.23;2.08;;;;;;;;;;5031289;28;20033;-62
2022/12/30 03:49:57;;;;;;;12.38;2.47;;;;;;;;;;5031838;28;20130;-62
2022/12/30 03:52:23;;;;;;;13.60;1.70;;;;;;;;;;5031477;28;20041;-63
2022/12/30 03:54:50;;;;;;;14.52;2.15;;;;;;;;;;5031537;28;20025;-63
2022/12/30 03:57:16;;;;;;;11.23;2.20;;;;;;;;;;5031375;28;20083;-63
2022/12/30 03:59:43;;;;;;;14.52;1.92;;;;;;;;;;5031414;28;20045;-63
2022/12/30 04:02:09;;;;;;;13.20;2.15;;;;;;;;;;5031195;28;20112;-63
2022/12/30 04:04:35;;;;;;;6.80;1.40;;;;;;;;;;5031749;28;20013;-63
2022/12/30 04:07:01;;;;;;;10.30;1.70;;;;;;;;;;5030684;28;20355;-62
2022/12/30 04:09:27;;;;;;;10.48;1.67;;;;;;;;;;5030996;28;20394;-63
2022/12/30 04:11:53;;;;;;;8.50;1.67;;;;;;;;;;5031488;28;20120;-63
2022/12/30 04:14:20;;;;;;;4.32;1.40;;;;;;;;;;5035710;28;20033;-63
2022/12/30 04:16:46;;;;;;;11.13;1.88;;;;;;;;;;5039763;28;20029;-63
2022/12/30 04:19:12;;;;;;;9.80;2.40;;;;;;;;;;5032053;28;20533;-63
2022/12/30 04:21:38;;;;;;;3.22;1.02;;;;;;;;;;5023779;28;20452;-63
2022/12/30 04:24:05;;;;;;;8.27;1.70;;;;;;;;;;5030450;28;20097;-63
2022/12/30 04:26:31;;;;;;;9.80;1.23;;;;;;;;;;5025575;28;20038;-64
2022/12/30 04:28:57;;;;;;;7.75;1.15;;;;;;;;;;5026568;28;20025;-63
2022/12/30 04:31:23;;;;;;;8.15;1.02;;;;;;;;;;5029877;28;20116;-63
2022/12/30 04:33:50;;;;;;;3.17;1.00;;;;;;;;;;5030782;28;20060;-63
2022/12/30 04:36:17;;;;;;;3.65;1.00;;;;;;;;;;5030768;28;20033;-63
2022/12/30 04:38:43;;;;;;;4.15;1.77;;;;;;;;;;5030666;28;20030;-63
2022/12/30 04:41:10;;;;;;;3.67;0.88;;;;;;;;;;5030860;28;20086;-63
2022/12/30 04:43:36;;;;;;;3.72;1.10;;;;;;;;;;5031275;28;20096;-63
2022/12/30 04:46:02;;;;;;;7.55;1.40;;;;;;;;;;5031600;28;20029;-63
2022/12/30 04:48:28;;;;;;;3.92;0.75;;;;;;;;;;5031236;28;20040;-63
2022/12/30 04:50:55;;;;;;;3.53;0.88;;;;;;;;;;5031099;28;20040;-64
2022/12/30 04:53:21;;;;;;;5.47;1.00;;;;;;;;;;5028545;28;20136;-63
2022/12/30 04:55:51;;;;;;;5.03;1.00;;;;;;;;;;5035996;28;20021;-63
2022/12/30 04:58:17;;;;;;;5.28;1.10;;;;;;;;;;5033761;28;20060;-63
2022/12/30 05:00:44;;;;;;;3.33;0.82;;;;;;;;;;5036811;28;20538;-63
2022/12/30 05:03:10;;;;;;;2.72;0.70;;;;;;;;;;5031208;28;20029;-63
2022/12/30 05:05:36;;;;;;;3.00;0.80;;;;;;;;;;5031655;28;20052;-63
2022/12/30 05:08:02;;;;;;;1.48;0.68;;;;;;;;;;5025726;28;20032;-63
2022/12/30 05:10:28;;;;;;;4.63;0.80;;;;;;;;;;5030787;28;20053;-63
2022/12/30 05:12:54;;;;;;;3.50;0.73;;;;;;;;;;5027481;28;20018;-63
2022/12/30 05:15:21;;;;;;;3.60;0.77;;;;;;;;;;5031006;28;20033;-63
2022/12/30 05:17:47;;;;;;;5.38;0.82;;;;;;;;;;5028608;28;20033;-66
2022/12/30 05:20:13;;;;;;;2.35;0.52;;;;;;;;;;5034448;28;20079;-66
2022/12/30 05:22:39;;;;;;;3.58;0.82;;;;;;;;;;5033658;28;20560;-66
2022/12/30 05:27:50;;;;;;;2.47;0.82;;;;;;;;;;5033869;28;20039;-66
2022/12/30 05:30:17;;;;;;;3.80;0.60;;;;;;;;;;5025549;28;20037;-66
2022/12/30 05:32:43;;;;;;;1.13;0.30;;;;;;;;;;5033383;28;20048;-65
2022/12/30 05:35:09;;;;;;;3.28;0.45;;;;;;;;;;5033521;28;20054;-65
2022/12/30 05:37:35;;;;;;;1.55;0.40;;;;;;;;;;5034038;28;20025;-65
2022/12/30 05:40:01;;;;;;;0.38;0.17;;;;;;;;;;5033886;28;20017;-66
2022/12/30 05:42:27;;;;;;;2.42;0.35;;;;;;;;;;5033784;28;20034;-66
2022/12/30 05:44:53;;;;;;;1.75;0.43;;;;;;;;;;5033547;28;20025;-66
2022/12/30 05:47:20;;;;;;;1.48;0.47;;;;;;;;;;5031061;28;20462;-66
2022/12/30 05:49:46;;;;;;;1.88;0.50;;;;;;;;;;5033897;28;20026;-66
2022/12/30 05:52:12;;;;;;;1.20;0.50;;;;;;;;;;5032929;28;20124;-66
2022/12/30 05:54:38;;;;;;;2.38;0.40;;;;;;;;;;5033540;28;20021;-66
2022/12/30 05:57:04;;;;;;;3.38;0.30;;;;;;;;;;5033083;28;20056;-66
2022/12/30 05:59:30;;;;;;;0.85;0.45;;;;;;;;;;5033734;28;20048;-66
2022/12/30 06:01:56;;;;;;;2.85;0.52;;;;;;;;;;5031927;28;20076;-66
2022/12/30 06:04:22;;;;;;;2.33;0.57;;;;;;;;;;5033517;28;20378;-66
2022/12/30 06:06:48;;;;;;;0.85;0.35;;;;;;;;;;5032887;28;20478;-66
2022/12/30 06:09:15;;;;;;;0.70;0.40;;;;;;;;;;5032805;28;20026;-66
2022/12/30 06:11:41;;;;;;;1.23;0.30;;;;;;;;;;5033249;28;20029;-66
2022/12/30 06:14:07;;;;;;;2.03;0.30;;;;;;;;;;5033300;28;20565;-66
2022/12/30 06:16:33;;;;;;;0.30;0.30;;;;;;;;;;5032752;28;20113;-66
2022/12/30 06:18:59;;;;;;;0.20;0.20;;;;;;;;;;5032607;28;20021;-66
2022/12/30 06:21:25;;;;;;;0.35;0.30;;;;;;;;;;5032782;28;20477;-66
2022/12/30 06:23:51;;;;;;;0.10;0.10;;;;;;;;;;5032561;28;20029;-66
2022/12/30 06:26:17;;;;;;;0.73;0.22;;;;;;;;;;5032847;28;20355;-66
2022/12/30 06:28:43;;;;;;;0.93;0.20;;;;;;;;;;5032384;28;20022;-66
2022/12/30 06:31:09;;;;;;;1.85;1.33;;;;;;;;;;5031904;28;20040;-66
2022/12/30 06:33:36;;;;;;;0.17;0.05;;;;;;;;;;5032815;28;20045;-66
2022/12/30 06:36:02;;;;;;;0.10;0.10;;;;;;;;;;5032509;28;20413;-66
2022/12/30 06:38:28;;;;;;;1.73;0.30;;;;;;;;;;5033105;28;20485;-66
2022/12/30 06:40:54;;;;;;;0.35;0.20;;;;;;;;;;5031757;28;20033;-67
2022/12/30 06:43:20;;;;;;;2.72;0.22;;;;;;;;;;5032815;28;20397;-67
2022/12/30 06:45:47;;;;;;;0.40;0.20;;;;;;;;;;5032075;28;20021;-67
2022/12/30 06:48:14;;;;;;;0.77;0.30;;;;;;;;;;5032687;28;20049;-66
2022/12/30 06:50:40;;;;;;;0.50;0.30;;;;;;;;;;5032230;28;20025;-67
2022/12/30 06:53:06;;;;;;;0.28;0.20;;;;;;;;;;5024430;28;20063;-67
2022/12/30 06:55:33;;;;;;;0.20;0.20;;;;;;;;;;5032617;28;20389;-66
2022/12/30 06:57:59;;;;;;;0.95;0.25;;;;;;;;;;5031851;28;20037;-67
2022/12/30 07:00:25;;;;;;;0.65;0.30;;;;;;;;;;5031993;28;20025;-67
2022/12/30 07:02:51;;;;;;;4.00;0.70;;;;;;;;;;5032268;28;20389;-67
2022/12/30 07:05:17;;;;;;;0.65;0.30;;;;;;;;;;5031192;28;20053;-67
2022/12/30 07:07:43;;;;;;;0.55;0.50;;;;;;;;;;5032360;28;20076;-67
2022/12/30 07:10:09;;;;;;;0.22;0.20;;;;;;;;;;5032105;28;20025;-67
2022/12/30 07:12:36;;;;;;;0.57;0.30;;;;;;;;;;5032168;28;20052;-67
2022/12/30 07:15:02;;;;;;;0.43;0.20;;;;;;;;;;5031775;28;20029;-67
2022/12/30 07:17:28;;;;;;;1.20;0.73;;;;;;;;;;5031846;28;20075;-67
2022/12/30 07:19:54;;;;;;;0.75;0.30;;;;;;;;;;5032703;28;20410;-66
2022/12/30 07:22:20;;;;;;;2.55;0.20;;;;;;;;;;5031730;28;20033;-67
2022/12/30 07:24:47;;;;;;;3.47;0.95;;;;;;;;;;5031678;28;20018;-67
2022/12/30 07:27:14;;;;;;;2.13;0.70;;;;;;;;;;5031456;28;20025;-67
2022/12/30 07:29:40;;;;;;;0.93;0.50;;;;;;;;;;5031832;28;20030;-67
2022/12/30 07:32:07;;;;;;;1.00;0.45;;;;;;;;;;5031463;28;20048;-67
2022/12/30 07:34:34;;;;;;;1.55;0.25;;;;;;;;;;5031244;28;20041;-67
2022/12/30 07:37:01;;;;;;;0.65;0.43;;;;;;;;;;5031549;28;20055;-66
2022/12/30 07:39:29;;;;;;;0.60;0.20;;;;;;;;;;5031151;28;20452;-66
2022/12/30 07:41:55;;;;;;;0.80;0.10;;;;;;;;;;5030433;28;20119;-66
2022/12/30 07:44:21;;;;;;;2.65;0.40;;;;;;;;;;5030367;28;20033;-66
2022/12/30 07:46:47;;;;;;;3.28;0.40;;;;;;;;;;5022239;28;20470;-66
2022/12/30 07:49:13;;;;;;;1.67;0.50;;;;;;;;;;5031646;28;20029;-67
2022/12/30 07:51:39;;;;;;;4.72;0.75;;;;;;;;;;5031505;28;20057;-67
2022/12/30 07:54:05;;;;;;;1.17;0.65;;;;;;;;;;5031842;28;20040;-66
2022/12/30 07:56:31;;;;;;;1.50;0.32;;;;;;;;;;5031376;28;20025;-67
2022/12/30 07:58:58;;;;;;;3.92;0.70;;;;;;;;;;5031888;28;20044;-70
2022/12/30 08:01:25;;;;;;;1.95;0.75;;;;;;;;;;5029536;28;20470;-66
2022/12/30 08:03:51;;;;;;;3.75;0.75;;;;;;;;;;5031079;28;20032;-66
2022/12/30 08:06:18;;;;;;;6.30;0.90;;;;;;;;;;5030022;28;20025;-66
2022/12/30 08:08:45;;;;;;;4.30;0.70;;;;;;;;;;5031448;28;20428;-66
2022/12/30 08:11:11;;;;;;;2.50;0.68;;;;;;;;;;5030854;28;20127;-66
2022/12/30 08:13:39;;;;;;;3.72;0.98;;;;;;;;;;5028595;28;20140;-66
2022/12/30 08:16:09;;;;;;;5.65;0.90;;;;;;;;;;5013822;28;20034;-66
2022/12/30 08:18:36;;;;;;;2.95;0.98;;;;;;;;;;5024194;28;20049;-66
2022/12/30 08:21:03;;;;;;;7.07;0.50;;;;;;;;;;5020987;28;20022;-66
2022/12/30 08:23:30;;;;;;;4.47;0.57;;;;;;;;;;5022171;28;20029;-66
2022/12/30 08:25:56;;;;;;;5.40;0.90;;;;;;;;;;5025475;28;20030;-66
2022/12/30 08:28:23;;;;;;;4.38;0.90;;;;;;;;;;5016668;28;20076;-66
2022/12/30 08:30:49;;;;;;;5.90;1.55;;;;;;;;;;5016065;28;20029;-66
2022/12/30 08:33:15;;;;;;;2.97;0.80;;;;;;;;;;5024360;28;20036;-66
2022/12/30 08:35:41;;;;;;;5.50;1.20;;;;;;;;;;5028033;28;20030;-66
2022/12/30 08:38:07;;;;;;;4.28;1.20;;;;;;;;;;5026035;28;20026;-66
2022/12/30 08:40:33;;;;;;;4.32;1.10;;;;;;;;;;5028000;28;20052;-66
2022/12/30 08:42:59;;;;;;;3.97;0.70;;;;;;;;;;5028559;28;20029;-66
2022/12/30 08:45:26;;;;;;;9.93;1.13;;;;;;;;;;5028631;28;20136;-66
2022/12/30 08:47:52;;;;;;;7.45;1.13;;;;;;;;;;5025817;28;20033;-66
2022/12/30 08:50:18;;;;;;;9.57;1.10;;;;;;;;;;5024880;28;20108;-66
2022/12/30 08:52:45;;;;;;;3.40;1.00;;;;;;;;;;5031145;28;20021;-67
2022/12/30 08:55:11;;;;;;;5.40;1.50;;;;;;;;;;5032959;28;20477;-67
2022/12/30 08:57:40;;;;;;;9.70;1.17;;;;;;;;;;5032534;28;20040;-67
2022/12/30 09:00:07;;;;;;;6.25;1.27;;;;;;;;;;5031066;28;20033;-67
2022/12/30 09:02:34;;;;;;;8.23;1.48;;;;;;;;;;5031741;28;20036;-67
2022/12/30 09:05:00;;;;;;;8.82;1.38;;;;;;;;;;5031077;28;20040;-67
2022/12/30 09:07:27;;;;;;;5.32;1.27;;;;;;;;;;5031404;28;20021;-67
2022/12/30 09:09:53;;;;;;;8.52;1.65;;;;;;;;;;5029116;28;20564;-66
2022/12/30 09:12:19;;;;;;;9.82;2.10;;;;;;;;;;5030953;28;20512;-66
2022/12/30 09:14:45;;;;;;;9.57;1.55;;;;;;;;;;5031510;28;20367;-67
2022/12/30 09:17:11;;;;;;;7.90;1.38;;;;;;;;;;5031489;28;20029;-67
2022/12/30 09:19:37;;;;;;;6.78;1.70;;;;;;;;;;5031225;28;20413;-67
2022/12/30 09:22:03;;;;;;;6.45;1.80;;;;;;;;;;5031379;28;20029;-67
2022/12/30 09:24:29;;;;;;;13.90;1.63;;;;;;;;;;5026310;28;20527;-67
2022/12/30 09:26:55;;;;;;;10.07;2.10;;;;;;;;;;5031366;28;20025;-67
2022/12/30 09:29:22;;;;;;;9.68;1.85;;;;;;;;;;5027685;28;20029;-67
2022/12/30 09:31:48;;;;;;;13.75;1.85;;;;;;;;;;5029546;28;20021;-67
2022/12/30 09:34:14;;;;;;;11.07;1.67;;;;;;;;;;5018215;28;20161;-67
2022/12/30 09:36:40;;;;;;;10.23;1.55;;;;;;;;;;5020204;28;20485;-67
2022/12/30 09:39:06;;;;;;;6.50;1.90;;;;;;;;;;5017338;28;20029;-67
2022/12/30 09:44:26;;;;;;;9.77;2.42;;;;;;;;;;5016121;28;20470;-67
2022/12/30 09:46:58;;;;;;;9.75;1.77;;;;;;;;;;5016636;28;20524;-67
2022/12/30 09:49:27;;;;;;;13.88;2.17;;;;;;;;;;5015499;28;20072;-68
2022/12/30 09:51:58;;;;;;;15.00;1.67;;;;;;;;;;5017900;28;20244;-67
2022/12/30 09:54:26;;;;;;;7.93;2.15;;;;;;;;;;5022627;28;20037;-67
2022/12/30 09:56:57;;;;;;;11.73;2.05;;;;;;;;;;5024183;28;20021;-67
2022/12/30 09:59:29;;;;;;;10.45;2.20;;;;;;;;;;5030768;28;20033;-67
2022/12/30 10:02:13;;;;;;;11.65;2.38;;;;;;;;;;5025548;28;20378;-67
2022/12/30 10:04:39;;;;;;;16.02;2.28;;;;;;;;;;5028965;28;20032;-67
2022/12/30 10:07:24;;;;;;;13.80;2.28;;;;;;;;;;5030229;28;20024;-67
2022/12/30 10:09:55;;;;;;;13.13;2.75;;;;;;;;;;5027887;28;20524;-67
2022/12/30 10:12:34;;;;;;;19.50;2.47;;;;;;;;;;5029399;28;20022;-67
2022/12/30 10:15:13;;;;;;;12.88;2.92;;;;;;;;;;5028008;28;20493;-67
2022/12/30 10:17:45;;;;;;;12.57;2.03;;;;;;;;;;5028963;28;20466;-67
2022/12/30 10:20:18;;;;;;;14.18;2.58;;;;;;;;;;5024041;28;20113;-67
2022/12/30 10:22:55;;;;;;;12.95;2.42;;;;;;;;;;5019963;28;20073;-67
2022/12/30 10:25:27;;;;;;;13.05;2.15;;;;;;;;;;5017305;28;20029;-67
2022/12/30 10:27:57;;;;;;;16.85;2.53;;;;;;;;;;5021195;28;20040;-67
2022/12/30 10:30:35;;;;;;;9.93;2.05;;;;;;;;;;5021813;28;20029;-67
2022/12/30 10:33:02;;;;;;;10.85;3.45;;;;;;;;;;5016636;28;20029;-67
2022/12/30 10:35:32;;;;;;;15.38;3.20;;;;;;;;;;5029210;28;20052;-68
2022/12/30 10:38:19;;;;;;;14.40;2.95;;;;;;;;;;5023104;28;20025;-68
2022/12/30 10:40:54;;;;;;;22.65;3.33;;;;;;;;;;5017049;28;20084;-68
2022/12/30 10:43:28;;;;;;;12.07;3.13;;;;;;;;;;5018710;28;20029;-67
2022/12/30 10:46:18;;;;;;;18.52;3.90;;;;;;;;;;5020982;28;20108;-67
2022/12/30 10:49:11;;;;;;;17.00;3.28;;;;;;;;;;5030915;28;20025;-67
2022/12/30 10:51:37;;;;;;;;;;;;;;;;;;5028812;28;20079;-67
2022/12/30 10:54:03;;;;;;;23.13;4.47;;;;;;;;;;5029103;28;19913;-67
2022/12/30 10:56:31;;;;;;;12.95;2.78;;;;;;;;;;5026635;28;20021;-67
2022/12/30 10:58:59;;;;;;;23.15;3.90;;;;;;;;;;5029414;28;20037;-67
2022/12/30 11:01:28;;;;;;;23.50;2.88;;;;;;;;;;5027981;28;20056;-67
2022/12/30 11:03:58;;;;;;;20.52;2.80;;;;;;;;;;5027909;28;20033;-67
2022/12/30 11:06:31;;;;;;;15.88;2.80;;;;;;;;;;5025226;28;20033;-67
2022/12/30 11:09:12;;;;;;;15.38;2.72;;;;;;;;;;5028353;28;20032;-67
2022/12/30 11:14:43;;;;;;;14.50;2.50;;;;;;;;;;5022283;28;20048;-67
2022/12/30 11:17:09;;;;;;;;;;;;;;;;;;5032518;28;20037;-67
2022/12/30 11:19:35;;;;;;;9.80;2.00;;;;;;;;;;5032259;28;19905;-67
2022/12/30 11:22:04;;;;;;;14.63;3.42;;;;;;;;;;5031001;28;20402;-67
2022/12/30 11:24:30;;;;;;;23.23;2.55;;;;;;;;;;5031943;28;20017;-67
2022/12/30 11:26:56;;;;;;;14.27;2.15;;;;;;;;;;5032099;28;20420;-67
2022/12/30 11:29:22;;;;;;;16.02;2.60;;;;;;;;;;5032019;28;20455;-67
2022/12/30 11:31:51;;;;;;;13.98;2.75;;;;;;;;;;5023328;28;20107;-67
2022/12/30 11:34:20;;;;;;;17.65;2.88;;;;;;;;;;5029894;28;20034;-67
2022/12/30 11:36:46;;;;;;;10.70;2.10;;;;;;;;;;5022876;28;20022;-67
2022/12/30 11:39:15;;;;;;;21.13;2.53;;;;;;;;;;5029169;28;20049;-67
2022/12/30 11:41:46;;;;;;;17.17;2.55;;;;;;;;;;5030410;28;20116;-67
2022/12/30 11:44:13;;;;;;;11.75;2.65;;;;;;;;;;5031070;28;20034;-67
2022/12/30 11:46:43;;;;;;;10.32;2.17;;;;;;;;;;5025127;28;20433;-67
2022/12/30 11:49:18;;;;;;;11.73;2.67;;;;;;;;;;5026072;28;20057;-67
2022/12/30 11:51:47;;;;;;;15.15;2.38;;;;;;;;;;5031715;28;20037;-67
2022/12/30 11:54:16;;;;;;;12.55;2.63;;;;;;;;;;5029987;28;20393;-67
2022/12/30 11:56:59;;;;;;;13.05;2.50;;;;;;;;;;5031389;28;21379;-67
2022/12/30 11:59:31;;;;;;;13.57;2.83;;;;;;;;;;5031960;28;20509;-67
2022/12/30 12:01:59;;;;;;;15.65;2.40;;;;;;;;;;5031309;28;20167;-67
2022/12/30 12:04:31;;;;;;;17.00;2.53;;;;;;;;;;5031322;28;20049;-67
2022/12/30 12:06:57;;;;;;;8.47;2.30;;;;;;;;;;5018170;28;20040;-67
2022/12/30 12:09:32;;;;;;;18.10;2.63;;;;;;;;;;5024058;28;20249;-67
2022/12/30 12:12:01;;;;;;;13.20;2.47;;;;;;;;;;5020660;28;20037;-67
2022/12/30 12:14:34;;;;;;;11.43;1.98;;;;;;;;;;5029753;28;20481;-67
2022/12/30 12:17:25;;;;;;;12.88;2.33;;;;;;;;;;5031621;28;20037;-67
2022/12/30 12:20:03;;;;;;;11.05;1.98;;;;;;;;;;5029471;28;20029;-67
2022/12/30 12:22:47;;;;;;;6.95;2.30;;;;;;;;;;5031354;28;20057;-67
2022/12/30 12:25:20;;;;;;;15.82;2.35;;;;;;;;;;5031434;28;20036;-67
2022/12/30 12:27:48;;;;;;;12.93;2.15;;;;;;;;;;5033646;28;20032;-67
2022/12/30 12:30:14;;;;;;;10.32;2.80;;;;;;;;;;5035394;28;20092;-67
2022/12/30 12:32:51;;;;;;;6.97;1.50;;;;;;;;;;5034032;28;20143;-67
2022/12/30 12:35:22;;;;;;;13.00;2.67;;;;;;;;;;5028738;28;20057;-66
2022/12/30 12:37:54;;;;;;;10.13;2.35;;;;;;;;;;5034306;28;20037;-66
2022/12/30 12:40:36;;;;;;;13.75;2.53;;;;;;;;;;5028302;28;20477;-66
2022/12/30 12:43:08;;;;;;;18.33;2.45;;;;;;;;;;5034717;28;20026;-66
2022/12/30 12:45:49;;;;;;;15.52;2.42;;;;;;;;;;5034964;28;20113;-66
2022/12/30 12:48:41;;;;;;;13.32;2.88;;;;;;;;;;5033887;28;20025;-66
2022/12/30 12:51:07;;;;;;;9.32;2.45;;;;;;;;;;5024401;28;20390;-66
2022/12/30 12:53:42;;;;;;;14.85;2.65;;;;;;;;;;5034040;28;20018;-66
2022/12/30 12:56:35;;;;;;;18.90;2.75;;;;;;;;;;5034644;28;20029;-66
2022/12/30 12:59:01;;;;;;;14.95;3.13;;;;;;;;;;5022972;28;20060;-66
2022/12/30 13:01:27;;;;;;;14.85;3.03;;;;;;;;;;5034268;28;20105;-66
2022/12/30 13:03:53;;;;;;;13.77;2.90;;;;;;;;;;5031733;28;20459;-66
2022/12/30 13:06:24;;;;;;;14.88;3.30;;;;;;;;;;5033296;28;20021;-66
2022/12/30 13:09:11;;;;;;;14.23;2.63;;;;;;;;;;5034737;28;20072;-66
2022/12/30 13:12:00;;;;;;;17.50;3.20;;;;;;;;;;5033744;28;20400;-67
2022/12/30 13:14:47;;;;;;;20.45;2.65;;;;;;;;;;5029217;28;20100;-67
2022/12/30 13:17:16;;;;;;;11.27;1.90;;;;;;;;;;5033525;28;20162;-67
2022/12/30 13:19:45;;;;;;;10.30;2.75;;;;;;;;;;5021075;28;20030;-67
2022/12/30 13:22:13;;;;;;;15.68;2.42;;;;;;;;;;5027763;28;20057;-68
2022/12/30 13:24:45;;;;;;;13.82;1.92;;;;;;;;;;5030791;28;20485;-67
2022/12/30 13:27:19;;;;;;;9.50;2.07;;;;;;;;;;5016268;28;20022;-67
2022/12/30 13:29:45;;;;;;;8.85;2.00;;;;;;;;;;5021058;28;20492;-67
2022/12/30 13:32:25;;;;;;;9.23;2.17;;;;;;;;;;5026099;28;20029;-67
2022/12/30 13:35:14;;;;;;;12.50;2.30;;;;;;;;;;5024506;28;20041;-67
2022/12/30 13:37:46;;;;;;;9.20;2.10;;;;;;;;;;5026628;28;20025;-67
2022/12/30 13:40:14;;;;;;;11.20;2.90;;;;;;;;;;5025446;28;20437;-67
2022/12/30 13:42:40;;;;;;;12.13;2.50;;;;;;;;;;5026397;28;20036;-66
2022/12/30 13:45:24;;;;;;;18.30;3.00;;;;;;;;;;5030146;28;20033;-66
2022/12/30 13:47:56;;;;;;;17.65;2.50;;;;;;;;;;5025273;28;20159;-67
2022/12/30 13:50:26;;;;;;;10.10;2.08;;;;;;;;;;5027246;28;20041;-67
2022/12/30 13:52:57;;;;;;;9.07;1.77;;;;;;;;;;5026807;28;20128;-67
2022/12/30 13:55:38;;;;;;;6.78;2.10;;;;;;;;;;5027485;28;20038;-67
2022/12/30 13:58:08;;;;;;;15.25;2.22;;;;;;;;;;5027859;28;20049;-67
2022/12/30 14:00:38;;;;;;;6.22;1.95;;;;;;;;;;5025653;28;20030;-67
2022/12/30 14:03:04;;;;;;;8.52;1.95;;;;;;;;;;5025273;28;20029;-67
2022/12/30 14:05:37;;;;;;;10.10;1.80;;;;;;;;;;5030747;28;20013;-67
2022/12/30 14:08:18;;;;;;;9.75;2.13;;;;;;;;;;5023801;28;20025;-67
2022/12/30 14:10:46;;;;;;;13.75;1.92;;;;;;;;;;5027795;28;20484;-67
2022/12/30 14:13:13;;;;;;;14.68;2.33;;;;;;;;;;5028180;28;20067;-67
2022/12/30 14:15:41;;;;;;;8.70;2.78;;;;;;;;;;5029415;28;20049;-67
2022/12/30 14:18:07;;;;;;;14.30;1.98;;;;;;;;;;5026706;28;20045;-67
2022/12/30 14:20:35;;;;;;;17.08;2.90;;;;;;;;;;5023739;28;20057;-67
2022/12/30 14:23:02;;;;;;;11.75;2.00;;;;;;;;;;5028138;28;20549;-67
2022/12/30 14:25:40;;;;;;;11.93;2.13;;;;;;;;;;5027372;28;20031;-67
2022/12/30 14:28:15;;;;;;;14.32;3.58;;;;;;;;;;5025340;28;20053;-67
2022/12/30 14:30:41;;;;;;;18.08;2.88;;;;;;;;;;5028921;28;20029;-67
2022/12/30 14:33:17;;;;;;;16.85;3.42;;;;;;;;;;5026841;28;20026;-67
2022/12/30 14:35:54;;;;;;;16.88;2.63;;;;;;;;;;5027207;28;20026;-66
2022/12/30 14:38:25;;;;;;;17.33;2.95;;;;;;;;;;5020203;28;20037;-69
2022/12/30 14:40:56;;;;;;;18.17;4.13;;;;;;;;;;5029882;28;20045;-67
2022/12/30 14:43:23;;;;;;;17.30;3.10;;;;;;;;;;5019797;28;20025;-67
2022/12/30 14:45:49;;;;;;;13.75;2.60;;;;;;;;;;5028556;28;20398;-67
2022/12/30 14:48:35;;;;;;;10.25;2.83;;;;;;;;;;5026032;28;20022;-67
2022/12/30 14:51:01;;;;;;;8.90;1.60;;;;;;;;;;5022558;28;20032;-67
2022/12/30 14:53:27;;;;;;;10.13;1.83;;;;;;;;;;5023555;28;20033;-67
2022/12/30 14:55:53;;;;;;;16.45;2.40;;;;;;;;;;5028126;28;20112;-67
2022/12/30 14:58:20;;;;;;;14.93;2.70;;;;;;;;;;5029135;28;20511;-67
2022/12/30 15:00:51;;;;;;;9.65;2.20;;;;;;;;;;5023675;28;20029;-67
2022/12/30 15:03:20;;;;;;;11.18;2.78;;;;;;;;;;5031130;28;20094;-67
2022/12/30 15:05:49;;;;;;;8.93;2.38;;;;;;;;;;5027706;28;20112;-67
2022/12/30 15:08:16;;;;;;;13.23;2.20;;;;;;;;;;5029519;28;20389;-67
2022/12/30 15:10:54;;;;;;;17.10;2.15;;;;;;;;;;5031743;28;20044;-67
2022/12/30 15:13:29;;;;;;;12.65;2.25;;;;;;;;;;5032665;28;20104;-67
2022/12/30 15:16:13;;;;;;;18.08;2.72;;;;;;;;;;5031378;28;20025;-67
2022/12/30 15:18:41;;;;;;;11.95;1.98;;;;;;;;;;5031512;28;20025;-67
2022/12/30 15:21:21;;;;;;;12.82;2.53;;;;;;;;;;5027429;28;20036;-67
2022/12/30 15:23:59;;;;;;;14.60;2.50;;;;;;;;;;5033401;28;20025;-67
2022/12/30 15:26:26;;;;;;;14.63;3.00;;;;;;;;;;5027207;28;20379;-67
2022/12/30 15:28:53;;;;;;;22.35;3.60;;;;;;;;;;5032545;28;20029;-67
2022/12/30 15:31:25;;;;;;;10.75;2.35;;;;;;;;;;5029728;28;20025;-67
2022/12/30 15:34:01;;;;;;;9.32;2.53;;;;;;;;;;5027687;28;20051;-67
2022/12/30 15:36:31;;;;;;;10.20;2.20;;;;;;;;;;5018949;28;20401;-66
2022/12/30 15:38:58;;;;;;;8.13;1.98;;;;;;;;;;5013360;28;20109;-66
2022/12/30 15:41:31;;;;;;;10.07;2.05;;;;;;;;;;5017506;28;20449;-67
2022/12/30 15:43:58;;;;;;;14.57;2.50;;;;;;;;;;5014289;28;20038;-66
2022/12/30 15:46:26;;;;;;;9.80;2.17;;;;;;;;;;5015735;28;20068;-67